sensor_id;sensor_type;location;lat;lon;timestamp;P1;durP1;ratioP1;P2;durP2;ratioP2
16288;SDS011;26089;43.538;5.250;2023-05-14T00:02:06;3.00;;;1.73;;
16288;SDS011;26089;43.538;5.250;2023-05-14T00:04:33;2.00;;;1.60;;
16288;SDS011;26089;43.538;5.250;2023-05-14T00:07:01;2.07;;;1.83;;
16288;SDS011;26089;43.538;5.250;2023-05-14T00:09:28;1.70;;;1.60;;
16288;SDS011;26089;43.538;5.250;2023-05-14T00:11:55;1.83;;;1.73;;
16288;SDS011;26089;43.538;5.250;2023-05-14T00:14:22;1.60;;;1.60;;
16288;SDS011;26089;43.538;5.250;2023-05-14T00:16:49;2.63;;;1.50;;
16288;SDS011;26089;43.538;5.250;2023-05-14T00:19:16;1.60;;;1.50;;
16288;SDS011;26089;43.538;5.250;2023-05-14T00:21:43;1.70;;;1.60;;
16288;SDS011;26089;43.538;5.250;2023-05-14T00:24:11;2.60;;;2.07;;
16288;SDS011;26089;43.538;5.250;2023-05-14T00:26:38;2.30;;;1.90;;
16288;SDS011;26089;43.538;5.250;2023-05-14T00:29:05;1.67;;;1.57;;
16288;SDS011;26089;43.538;5.250;2023-05-14T00:31:32;1.97;;;1.70;;
16288;SDS011;26089;43.538;5.250;2023-05-14T00:33:59;1.90;;;1.77;;
16288;SDS011;26089;43.538;5.250;2023-05-14T00:36:26;1.53;;;1.50;;
16288;SDS011;26089;43.538;5.250;2023-05-14T00:38:53;2.10;;;1.90;;
16288;SDS011;26089;43.538;5.250;2023-05-14T00:41:21;1.70;;;1.60;;
16288;SDS011;26089;43.538;5.250;2023-05-14T00:43:48;1.73;;;1.63;;
16288;SDS011;26089;43.538;5.250;2023-05-14T00:46:15;1.70;;;1.60;;
16288;SDS011;26089;43.538;5.250;2023-05-14T00:48:42;2.13;;;1.70;;
16288;SDS011;26089;43.538;5.250;2023-05-14T00:51:10;1.70;;;1.60;;
16288;SDS011;26089;43.538;5.250;2023-05-14T00:53:37;2.00;;;1.70;;
16288;SDS011;26089;43.538;5.250;2023-05-14T00:56:04;2.83;;;1.60;;
16288;SDS011;26089;43.538;5.250;2023-05-14T00:58:33;1.50;;;1.50;;
16288;SDS011;26089;43.538;5.250;2023-05-14T01:01:00;1.70;;;1.60;;
16288;SDS011;26089;43.538;5.250;2023-05-14T01:03:28;1.83;;;1.73;;
16288;SDS011;26089;43.538;5.250;2023-05-14T01:05:57;3.00;;;2.80;;
16288;SDS011;26089;43.538;5.250;2023-05-14T01:08:30;3.17;;;1.67;;
16288;SDS011;26089;43.538;5.250;2023-05-14T01:11:06;1.73;;;1.63;;
16288;SDS011;26089;43.538;5.250;2023-05-14T01:13:45;2.30;;;1.90;;
16288;SDS011;26089;43.538;5.250;2023-05-14T01:16:18;1.73;;;1.63;;
16288;SDS011;26089;43.538;5.250;2023-05-14T01:18:47;1.70;;;1.60;;
16288;SDS011;26089;43.538;5.250;2023-05-14T01:21:35;2.03;;;1.70;;
16288;SDS011;26089;43.538;5.250;2023-05-14T01:24:05;2.37;;;2.20;;
16288;SDS011;26089;43.538;5.250;2023-05-14T01:26:32;3.30;;;1.70;;
16288;SDS011;26089;43.538;5.250;2023-05-14T01:29:00;2.77;;;1.60;;
16288;SDS011;26089;43.538;5.250;2023-05-14T01:31:32;2.17;;;1.63;;
16288;SDS011;26089;43.538;5.250;2023-05-14T01:34:02;2.67;;;2.00;;
16288;SDS011;26089;43.538;5.250;2023-05-14T01:36:30;1.97;;;1.87;;
16288;SDS011;26089;43.538;5.250;2023-05-14T01:39:00;2.13;;;2.00;;
16288;SDS011;26089;43.538;5.250;2023-05-14T01:41:28;1.90;;;1.80;;
16288;SDS011;26089;43.538;5.250;2023-05-14T01:43:57;1.90;;;1.80;;
16288;SDS011;26089;43.538;5.250;2023-05-14T01:46:24;1.97;;;1.83;;
16288;SDS011;26089;43.538;5.250;2023-05-14T01:48:51;2.23;;;1.90;;
16288;SDS011;26089;43.538;5.250;2023-05-14T01:51:18;2.60;;;2.40;;
16288;SDS011;26089;43.538;5.250;2023-05-14T01:53:45;3.33;;;2.20;;
16288;SDS011;26089;43.538;5.250;2023-05-14T01:56:13;2.23;;;2.10;;
16288;SDS011;26089;43.538;5.250;2023-05-14T01:58:40;1.90;;;1.80;;
16288;SDS011;26089;43.538;5.250;2023-05-14T02:01:07;2.40;;;2.17;;
16288;SDS011;26089;43.538;5.250;2023-05-14T02:03:34;3.37;;;2.20;;
16288;SDS011;26089;43.538;5.250;2023-05-14T02:06:01;2.30;;;2.20;;
16288;SDS011;26089;43.538;5.250;2023-05-14T02:08:28;2.10;;;2.00;;
16288;SDS011;26089;43.538;5.250;2023-05-14T02:10:55;2.40;;;2.23;;
16288;SDS011;26089;43.538;5.250;2023-05-14T02:13:23;2.00;;;1.80;;
16288;SDS011;26089;43.538;5.250;2023-05-14T02:15:50;3.10;;;2.23;;
16288;SDS011;26089;43.538;5.250;2023-05-14T02:18:17;2.67;;;2.47;;
16288;SDS011;26089;43.538;5.250;2023-05-14T02:20:45;2.43;;;2.30;;
16288;SDS011;26089;43.538;5.250;2023-05-14T02:23:12;2.57;;;2.43;;
16288;SDS011;26089;43.538;5.250;2023-05-14T02:25:39;2.33;;;2.23;;
16288;SDS011;26089;43.538;5.250;2023-05-14T02:28:06;2.57;;;1.70;;
16288;SDS011;26089;43.538;5.250;2023-05-14T02:30:34;2.73;;;1.90;;
16288;SDS011;26089;43.538;5.250;2023-05-14T02:33:01;1.97;;;1.93;;
16288;SDS011;26089;43.538;5.250;2023-05-14T02:35:28;3.37;;;2.00;;
16288;SDS011;26089;43.538;5.250;2023-05-14T02:37:55;2.00;;;1.90;;
16288;SDS011;26089;43.538;5.250;2023-05-14T02:40:23;2.70;;;1.90;;
16288;SDS011;26089;43.538;5.250;2023-05-14T02:42:50;2.30;;;2.20;;
16288;SDS011;26089;43.538;5.250;2023-05-14T02:45:17;2.37;;;2.20;;
16288;SDS011;26089;43.538;5.250;2023-05-14T02:47:47;2.60;;;2.50;;
16288;SDS011;26089;43.538;5.250;2023-05-14T02:50:13;3.40;;;2.70;;
16288;SDS011;26089;43.538;5.250;2023-05-14T02:52:40;2.50;;;2.13;;
16288;SDS011;26089;43.538;5.250;2023-05-14T02:55:08;2.43;;;2.23;;
16288;SDS011;26089;43.538;5.250;2023-05-14T02:57:35;3.67;;;2.50;;
16288;SDS011;26089;43.538;5.250;2023-05-14T03:00:02;2.67;;;2.40;;
16288;SDS011;26089;43.538;5.250;2023-05-14T03:02:30;2.77;;;2.13;;
16288;SDS011;26089;43.538;5.250;2023-05-14T03:04:59;2.93;;;2.33;;
16288;SDS011;26089;43.538;5.250;2023-05-14T03:07:25;3.00;;;2.23;;
16288;SDS011;26089;43.538;5.250;2023-05-14T03:09:53;2.20;;;2.03;;
16288;SDS011;26089;43.538;5.250;2023-05-14T03:12:19;2.40;;;2.20;;
16288;SDS011;26089;43.538;5.250;2023-05-14T03:14:46;3.17;;;2.47;;
16288;SDS011;26089;43.538;5.250;2023-05-14T03:17:13;4.37;;;2.63;;
16288;SDS011;26089;43.538;5.250;2023-05-14T03:19:40;3.70;;;2.30;;
16288;SDS011;26089;43.538;5.250;2023-05-14T03:22:09;3.27;;;2.63;;
16288;SDS011;26089;43.538;5.250;2023-05-14T03:24:36;2.20;;;2.10;;
16288;SDS011;26089;43.538;5.250;2023-05-14T03:27:04;3.77;;;2.30;;
16288;SDS011;26089;43.538;5.250;2023-05-14T03:29:31;4.10;;;2.63;;
16288;SDS011;26089;43.538;5.250;2023-05-14T03:31:58;2.17;;;2.07;;
16288;SDS011;26089;43.538;5.250;2023-05-14T03:34:25;2.53;;;2.37;;
16288;SDS011;26089;43.538;5.250;2023-05-14T03:36:52;2.73;;;2.53;;
16288;SDS011;26089;43.538;5.250;2023-05-14T03:39:20;2.77;;;2.57;;
16288;SDS011;26089;43.538;5.250;2023-05-14T03:41:47;5.17;;;2.80;;
16288;SDS011;26089;43.538;5.250;2023-05-14T03:44:14;2.37;;;2.27;;
16288;SDS011;26089;43.538;5.250;2023-05-14T03:46:41;2.50;;;2.37;;
16288;SDS011;26089;43.538;5.250;2023-05-14T03:49:08;3.20;;;2.07;;
16288;SDS011;26089;43.538;5.250;2023-05-14T03:51:35;2.70;;;2.50;;
16288;SDS011;26089;43.538;5.250;2023-05-14T03:54:02;2.80;;;2.60;;
16288;SDS011;26089;43.538;5.250;2023-05-14T03:56:31;2.83;;;2.60;;
16288;SDS011;26089;43.538;5.250;2023-05-14T03:58:58;2.50;;;2.40;;
16288;SDS011;26089;43.538;5.250;2023-05-14T04:01:24;2.63;;;2.30;;
16288;SDS011;26089;43.538;5.250;2023-05-14T04:03:51;2.90;;;2.70;;
16288;SDS011;26089;43.538;5.250;2023-05-14T04:06:18;3.03;;;2.83;;
16288;SDS011;26089;43.538;5.250;2023-05-14T04:08:45;2.30;;;2.20;;
16288;SDS011;26089;43.538;5.250;2023-05-14T04:11:12;2.63;;;2.43;;
16288;SDS011;26089;43.538;5.250;2023-05-14T04:13:41;2.40;;;2.20;;
16288;SDS011;26089;43.538;5.250;2023-05-14T04:16:08;3.17;;;2.87;;
16288;SDS011;26089;43.538;5.250;2023-05-14T04:18:34;2.20;;;2.10;;
16288;SDS011;26089;43.538;5.250;2023-05-14T04:21:01;2.90;;;2.40;;
16288;SDS011;26089;43.538;5.250;2023-05-14T04:23:28;2.30;;;2.20;;
16288;SDS011;26089;43.538;5.250;2023-05-14T04:25:56;2.70;;;2.50;;
16288;SDS011;26089;43.538;5.250;2023-05-14T04:28:23;1.90;;;1.80;;
16288;SDS011;26089;43.538;5.250;2023-05-14T04:30:52;2.23;;;2.10;;
16288;SDS011;26089;43.538;5.250;2023-05-14T04:33:19;2.60;;;2.50;;
16288;SDS011;26089;43.538;5.250;2023-05-14T04:35:46;2.20;;;2.10;;
16288;SDS011;26089;43.538;5.250;2023-05-14T04:38:13;2.47;;;2.37;;
16288;SDS011;26089;43.538;5.250;2023-05-14T04:40:40;1.90;;;1.80;;
16288;SDS011;26089;43.538;5.250;2023-05-14T04:43:07;2.30;;;2.20;;
16288;SDS011;26089;43.538;5.250;2023-05-14T04:45:34;2.30;;;2.10;;
16288;SDS011;26089;43.538;5.250;2023-05-14T04:48:03;2.07;;;1.87;;
16288;SDS011;26089;43.538;5.250;2023-05-14T04:50:31;2.53;;;2.10;;
16288;SDS011;26089;43.538;5.250;2023-05-14T04:52:58;1.90;;;1.80;;
16288;SDS011;26089;43.538;5.250;2023-05-14T04:55:26;2.33;;;2.10;;
16288;SDS011;26089;43.538;5.250;2023-05-14T04:57:53;2.60;;;2.40;;
16288;SDS011;26089;43.538;5.250;2023-05-14T05:00:20;2.03;;;1.80;;
16288;SDS011;26089;43.538;5.250;2023-05-14T05:02:47;2.30;;;2.07;;
16288;SDS011;26089;43.538;5.250;2023-05-14T05:05:15;2.33;;;2.00;;
16288;SDS011;26089;43.538;5.250;2023-05-14T05:07:42;3.43;;;2.00;;
16288;SDS011;26089;43.538;5.250;2023-05-14T05:10:09;2.03;;;1.93;;
16288;SDS011;26089;43.538;5.250;2023-05-14T05:12:36;2.57;;;2.33;;
16288;SDS011;26089;43.538;5.250;2023-05-14T05:15:04;2.00;;;1.90;;
16288;SDS011;26089;43.538;5.250;2023-05-14T05:17:31;3.00;;;2.47;;
16288;SDS011;26089;43.538;5.250;2023-05-14T05:19:58;2.13;;;1.90;;
16288;SDS011;26089;43.538;5.250;2023-05-14T05:22:27;2.63;;;2.20;;
16288;SDS011;26089;43.538;5.250;2023-05-14T05:24:54;1.90;;;1.80;;
16288;SDS011;26089;43.538;5.250;2023-05-14T05:27:21;2.03;;;1.93;;
16288;SDS011;26089;43.538;5.250;2023-05-14T05:29:48;2.03;;;1.93;;
16288;SDS011;26089;43.538;5.250;2023-05-14T05:32:14;1.67;;;1.60;;
16288;SDS011;26089;43.538;5.250;2023-05-14T05:34:41;2.07;;;1.77;;
16288;SDS011;26089;43.538;5.250;2023-05-14T05:37:09;2.07;;;1.90;;
16288;SDS011;26089;43.538;5.250;2023-05-14T05:39:39;2.83;;;2.40;;
16288;SDS011;26089;43.538;5.250;2023-05-14T05:42:06;2.37;;;2.27;;
16288;SDS011;26089;43.538;5.250;2023-05-14T05:44:33;2.50;;;2.30;;
16288;SDS011;26089;43.538;5.250;2023-05-14T05:47:00;2.50;;;2.30;;
16288;SDS011;26089;43.538;5.250;2023-05-14T05:49:27;2.93;;;2.60;;
16288;SDS011;26089;43.538;5.250;2023-05-14T05:51:54;10.43;;;4.90;;
16288;SDS011;26089;43.538;5.250;2023-05-14T05:54:21;5.63;;;4.17;;
16288;SDS011;26089;43.538;5.250;2023-05-14T05:56:51;5.27;;;3.63;;
16288;SDS011;26089;43.538;5.250;2023-05-14T05:59:18;7.43;;;4.80;;
16288;SDS011;26089;43.538;5.250;2023-05-14T06:01:45;3.77;;;3.10;;
16288;SDS011;26089;43.538;5.250;2023-05-14T06:04:12;9.23;;;5.17;;
16288;SDS011;26089;43.538;5.250;2023-05-14T06:06:39;5.50;;;4.10;;
16288;SDS011;26089;43.538;5.250;2023-05-14T06:09:06;5.63;;;4.23;;
16288;SDS011;26089;43.538;5.250;2023-05-14T06:11:34;7.50;;;4.20;;
16288;SDS011;26089;43.538;5.250;2023-05-14T06:14:02;6.90;;;4.47;;
16288;SDS011;26089;43.538;5.250;2023-05-14T06:16:29;4.93;;;3.73;;
16288;SDS011;26089;43.538;5.250;2023-05-14T06:18:56;3.30;;;3.00;;
16288;SDS011;26089;43.538;5.250;2023-05-14T06:21:23;3.63;;;2.40;;
16288;SDS011;26089;43.538;5.250;2023-05-14T06:23:50;2.60;;;2.40;;
16288;SDS011;26089;43.538;5.250;2023-05-14T06:26:17;3.03;;;1.80;;
16288;SDS011;26089;43.538;5.250;2023-05-14T06:28:45;2.00;;;1.80;;
16288;SDS011;26089;43.538;5.250;2023-05-14T06:31:13;2.50;;;2.30;;
16288;SDS011;26089;43.538;5.250;2023-05-14T06:33:40;2.37;;;1.70;;
16288;SDS011;26089;43.538;5.250;2023-05-14T06:36:07;2.50;;;1.70;;
16288;SDS011;26089;43.538;5.250;2023-05-14T06:38:35;2.00;;;1.60;;
16288;SDS011;26089;43.538;5.250;2023-05-14T06:41:02;2.23;;;2.07;;
16288;SDS011;26089;43.538;5.250;2023-05-14T06:43:29;2.47;;;1.90;;
16288;SDS011;26089;43.538;5.250;2023-05-14T06:45:56;2.10;;;1.90;;
16288;SDS011;26089;43.538;5.250;2023-05-14T06:48:24;1.90;;;1.80;;
16288;SDS011;26089;43.538;5.250;2023-05-14T06:50:53;1.67;;;1.57;;
16288;SDS011;26089;43.538;5.250;2023-05-14T06:53:20;2.07;;;1.60;;
16288;SDS011;26089;43.538;5.250;2023-05-14T06:55:47;2.60;;;2.20;;
16288;SDS011;26089;43.538;5.250;2023-05-14T06:58:14;1.83;;;1.83;;
16288;SDS011;26089;43.538;5.250;2023-05-14T07:00:41;2.20;;;2.00;;
16288;SDS011;26089;43.538;5.250;2023-05-14T07:03:08;3.20;;;2.07;;
16288;SDS011;26089;43.538;5.250;2023-05-14T07:05:37;3.47;;;2.13;;
16288;SDS011;26089;43.538;5.250;2023-05-14T07:08:05;2.50;;;2.00;;
16288;SDS011;26089;43.538;5.250;2023-05-14T07:10:32;2.40;;;2.13;;
16288;SDS011;26089;43.538;5.250;2023-05-14T07:12:59;2.03;;;1.93;;
16288;SDS011;26089;43.538;5.250;2023-05-14T07:15:27;3.00;;;2.13;;
16288;SDS011;26089;43.538;5.250;2023-05-14T07:17:54;2.33;;;1.90;;
16288;SDS011;26089;43.538;5.250;2023-05-14T07:20:21;1.90;;;1.80;;
16288;SDS011;26089;43.538;5.250;2023-05-14T07:22:51;2.80;;;2.00;;
16288;SDS011;26089;43.538;5.250;2023-05-14T07:25:18;2.27;;;2.07;;
16288;SDS011;26089;43.538;5.250;2023-05-14T07:27:45;2.47;;;1.80;;
16288;SDS011;26089;43.538;5.250;2023-05-14T07:30:12;1.80;;;1.60;;
16288;SDS011;26089;43.538;5.250;2023-05-14T07:32:39;1.80;;;1.70;;
16288;SDS011;26089;43.538;5.250;2023-05-14T07:35:06;2.77;;;1.90;;
16288;SDS011;26089;43.538;5.250;2023-05-14T07:37:35;2.07;;;1.87;;
16288;SDS011;26089;43.538;5.250;2023-05-14T07:40:04;1.70;;;1.60;;
16288;SDS011;26089;43.538;5.250;2023-05-14T07:42:32;2.17;;;1.80;;
16288;SDS011;26089;43.538;5.250;2023-05-14T07:44:59;1.87;;;1.77;;
16288;SDS011;26089;43.538;5.250;2023-05-14T07:47:26;1.90;;;1.80;;
16288;SDS011;26089;43.538;5.250;2023-05-14T07:49:54;2.50;;;1.60;;
16288;SDS011;26089;43.538;5.250;2023-05-14T07:52:21;1.80;;;1.70;;
16288;SDS011;26089;43.538;5.250;2023-05-14T07:54:48;2.27;;;1.90;;
16288;SDS011;26089;43.538;5.250;2023-05-14T07:57:18;2.23;;;1.80;;
16288;SDS011;26089;43.538;5.250;2023-05-14T07:59:46;1.90;;;1.77;;
16288;SDS011;26089;43.538;5.250;2023-05-14T08:02:13;1.80;;;1.70;;
16288;SDS011;26089;43.538;5.250;2023-05-14T08:04:41;1.20;;;1.20;;
16288;SDS011;26089;43.538;5.250;2023-05-14T08:07:08;1.47;;;1.40;;
16288;SDS011;26089;43.538;5.250;2023-05-14T08:09:35;1.70;;;1.50;;
16288;SDS011;26089;43.538;5.250;2023-05-14T08:12:03;2.37;;;1.67;;
16288;SDS011;26089;43.538;5.250;2023-05-14T08:17:00;1.93;;;1.83;;
16288;SDS011;26089;43.538;5.250;2023-05-14T08:19:27;1.67;;;1.50;;
16288;SDS011;26089;43.538;5.250;2023-05-14T08:21:54;1.20;;;1.20;;
16288;SDS011;26089;43.538;5.250;2023-05-14T08:24:21;1.40;;;1.30;;
16288;SDS011;26089;43.538;5.250;2023-05-14T08:26:48;1.73;;;1.63;;
16288;SDS011;26089;43.538;5.250;2023-05-14T08:29:15;1.77;;;1.60;;
16288;SDS011;26089;43.538;5.250;2023-05-14T08:31:43;1.47;;;1.47;;
16288;SDS011;26089;43.538;5.250;2023-05-14T08:34:10;1.60;;;1.50;;
16288;SDS011;26089;43.538;5.250;2023-05-14T08:36:37;2.13;;;1.47;;
16288;SDS011;26089;43.538;5.250;2023-05-14T08:39:04;2.03;;;1.50;;
16288;SDS011;26089;43.538;5.250;2023-05-14T08:41:32;1.90;;;1.30;;
16288;SDS011;26089;43.538;5.250;2023-05-14T08:44:02;2.73;;;1.30;;
16288;SDS011;26089;43.538;5.250;2023-05-14T08:46:33;1.50;;;1.40;;
16288;SDS011;26089;43.538;5.250;2023-05-14T08:49:06;1.63;;;1.53;;
16288;SDS011;26089;43.538;5.250;2023-05-14T08:51:40;1.70;;;1.60;;
16288;SDS011;26089;43.538;5.250;2023-05-14T08:54:08;3.73;;;1.73;;
16288;SDS011;26089;43.538;5.250;2023-05-14T08:56:38;1.50;;;1.50;;
16288;SDS011;26089;43.538;5.250;2023-05-14T08:59:07;3.23;;;1.77;;
16288;SDS011;26089;43.538;5.250;2023-05-14T09:01:35;2.13;;;1.93;;
16288;SDS011;26089;43.538;5.250;2023-05-14T09:04:05;2.23;;;2.03;;
16288;SDS011;26089;43.538;5.250;2023-05-14T09:06:33;2.30;;;2.20;;
16288;SDS011;26089;43.538;5.250;2023-05-14T09:09:01;2.70;;;2.00;;
16288;SDS011;26089;43.538;5.250;2023-05-14T09:11:28;2.10;;;2.00;;
16288;SDS011;26089;43.538;5.250;2023-05-14T09:13:56;2.20;;;2.10;;
16288;SDS011;26089;43.538;5.250;2023-05-14T09:16:22;2.50;;;2.30;;
16288;SDS011;26089;43.538;5.250;2023-05-14T09:18:51;1.70;;;1.60;;
16288;SDS011;26089;43.538;5.250;2023-05-14T09:21:21;2.00;;;1.90;;
16288;SDS011;26089;43.538;5.250;2023-05-14T09:23:51;2.23;;;2.00;;
16288;SDS011;26089;43.538;5.250;2023-05-14T09:26:20;1.90;;;1.80;;
16288;SDS011;26089;43.538;5.250;2023-05-14T09:28:52;4.30;;;1.80;;
16288;SDS011;26089;43.538;5.250;2023-05-14T09:31:21;2.10;;;2.00;;
16288;SDS011;26089;43.538;5.250;2023-05-14T09:33:51;2.30;;;1.97;;
16288;SDS011;26089;43.538;5.250;2023-05-14T09:36:18;2.33;;;2.13;;
16288;SDS011;26089;43.538;5.250;2023-05-14T09:38:46;2.13;;;2.00;;
16288;SDS011;26089;43.538;5.250;2023-05-14T09:41:13;1.33;;;1.33;;
16288;SDS011;26089;43.538;5.250;2023-05-14T09:43:40;1.60;;;1.50;;
16288;SDS011;26089;43.538;5.250;2023-05-14T09:46:07;1.63;;;1.53;;
16288;SDS011;26089;43.538;5.250;2023-05-14T09:48:34;1.70;;;1.60;;
16288;SDS011;26089;43.538;5.250;2023-05-14T09:51:01;1.50;;;1.40;;
16288;SDS011;26089;43.538;5.250;2023-05-14T09:53:29;1.70;;;1.60;;
16288;SDS011;26089;43.538;5.250;2023-05-14T09:55:59;1.70;;;1.60;;
16288;SDS011;26089;43.538;5.250;2023-05-14T09:58:26;1.70;;;1.60;;
16288;SDS011;26089;43.538;5.250;2023-05-14T10:00:53;2.00;;;1.40;;
16288;SDS011;26089;43.538;5.250;2023-05-14T10:03:23;1.83;;;1.73;;
16288;SDS011;26089;43.538;5.250;2023-05-14T10:05:51;1.80;;;1.70;;
16288;SDS011;26089;43.538;5.250;2023-05-14T10:08:21;1.33;;;1.33;;
16288;SDS011;26089;43.538;5.250;2023-05-14T10:10:52;1.60;;;1.50;;
16288;SDS011;26089;43.538;5.250;2023-05-14T10:13:22;1.80;;;1.70;;
16288;SDS011;26089;43.538;5.250;2023-05-14T10:15:54;1.97;;;1.60;;
16288;SDS011;26089;43.538;5.250;2023-05-14T10:18:27;2.60;;;1.67;;
16288;SDS011;26089;43.538;5.250;2023-05-14T10:20:59;2.00;;;1.80;;
16288;SDS011;26089;43.538;5.250;2023-05-14T10:23:30;2.27;;;1.70;;
16288;SDS011;26089;43.538;5.250;2023-05-14T10:25:58;1.60;;;1.60;;
16288;SDS011;26089;43.538;5.250;2023-05-14T10:28:27;1.70;;;1.60;;
16288;SDS011;26089;43.538;5.250;2023-05-14T10:30:54;2.97;;;1.90;;
16288;SDS011;26089;43.538;5.250;2023-05-14T10:33:21;2.67;;;1.97;;
16288;SDS011;26089;43.538;5.250;2023-05-14T10:35:55;1.80;;;1.70;;
16288;SDS011;26089;43.538;5.250;2023-05-14T10:38:25;2.00;;;1.67;;
16288;SDS011;26089;43.538;5.250;2023-05-14T10:40:53;2.70;;;1.67;;
16288;SDS011;26089;43.538;5.250;2023-05-14T10:43:29;2.13;;;2.03;;
16288;SDS011;26089;43.538;5.250;2023-05-14T10:45:57;2.50;;;2.40;;
16288;SDS011;26089;43.538;5.250;2023-05-14T10:48:25;2.50;;;2.30;;
16288;SDS011;26089;43.538;5.250;2023-05-14T10:50:52;2.10;;;2.00;;
16288;SDS011;26089;43.538;5.250;2023-05-14T10:53:28;2.23;;;2.07;;
16288;SDS011;26089;43.538;5.250;2023-05-14T10:55:58;2.30;;;2.20;;
16288;SDS011;26089;43.538;5.250;2023-05-14T10:58:31;2.00;;;1.90;;
16288;SDS011;26089;43.538;5.250;2023-05-14T11:01:01;2.07;;;1.90;;
16288;SDS011;26089;43.538;5.250;2023-05-14T11:03:30;2.53;;;2.43;;
16288;SDS011;26089;43.538;5.250;2023-05-14T11:05:58;2.40;;;2.20;;
16288;SDS011;26089;43.538;5.250;2023-05-14T11:08:27;2.30;;;2.10;;
16288;SDS011;26089;43.538;5.250;2023-05-14T11:10:56;2.50;;;2.30;;
16288;SDS011;26089;43.538;5.250;2023-05-14T11:13:24;2.30;;;2.20;;
16288;SDS011;26089;43.538;5.250;2023-05-14T11:15:53;5.93;;;2.47;;
16288;SDS011;26089;43.538;5.250;2023-05-14T11:18:27;1.67;;;1.63;;
16288;SDS011;26089;43.538;5.250;2023-05-14T11:20:56;2.07;;;1.97;;
16288;SDS011;26089;43.538;5.250;2023-05-14T11:23:24;2.03;;;1.93;;
16288;SDS011;26089;43.538;5.250;2023-05-14T11:25:52;2.10;;;2.00;;
16288;SDS011;26089;43.538;5.250;2023-05-14T11:28:20;1.97;;;1.87;;
16288;SDS011;26089;43.538;5.250;2023-05-14T11:30:47;2.22;;;2.13;;
16288;SDS011;26089;43.538;5.250;2023-05-14T11:33:16;2.07;;;1.97;;
16288;SDS011;26089;43.538;5.250;2023-05-14T11:35:43;1.70;;;1.70;;
16288;SDS011;26089;43.538;5.250;2023-05-14T11:38:14;1.83;;;1.73;;
16288;SDS011;26089;43.538;5.250;2023-05-14T11:40:42;1.70;;;1.60;;
16288;SDS011;26089;43.538;5.250;2023-05-14T11:43:16;1.80;;;1.70;;
16288;SDS011;26089;43.538;5.250;2023-05-14T11:45:43;1.87;;;1.77;;
16288;SDS011;26089;43.538;5.250;2023-05-14T11:48:16;2.73;;;1.90;;
16288;SDS011;26089;43.538;5.250;2023-05-14T11:50:44;2.10;;;1.90;;
16288;SDS011;26089;43.538;5.250;2023-05-14T11:53:15;1.70;;;1.70;;
16288;SDS011;26089;43.538;5.250;2023-05-14T11:55:43;1.60;;;1.60;;
16288;SDS011;26089;43.538;5.250;2023-05-14T11:58:11;1.57;;;1.50;;
16288;SDS011;26089;43.538;5.250;2023-05-14T12:00:38;1.70;;;1.60;;
16288;SDS011;26089;43.538;5.250;2023-05-14T12:03:05;1.70;;;1.70;;
16288;SDS011;26089;43.538;5.250;2023-05-14T12:05:37;1.77;;;1.67;;
16288;SDS011;26089;43.538;5.250;2023-05-14T12:08:18;1.57;;;1.50;;
16288;SDS011;26089;43.538;5.250;2023-05-14T12:10:45;1.53;;;1.50;;
16288;SDS011;26089;43.538;5.250;2023-05-14T12:13:13;1.40;;;1.35;;
16288;SDS011;26089;43.538;5.250;2023-05-14T12:15:43;1.30;;;1.30;;
16288;SDS011;26089;43.538;5.250;2023-05-14T12:18:11;1.43;;;1.43;;
16288;SDS011;26089;43.538;5.250;2023-05-14T12:20:39;1.30;;;1.30;;
16288;SDS011;26089;43.538;5.250;2023-05-14T12:23:12;1.30;;;1.30;;
16288;SDS011;26089;43.538;5.250;2023-05-14T12:25:39;1.27;;;1.20;;
16288;SDS011;26089;43.538;5.250;2023-05-14T12:30:54;2.13;;;1.55;;
16288;SDS011;26089;43.538;5.250;2023-05-14T12:33:22;1.50;;;1.50;;
16288;SDS011;26089;43.538;5.250;2023-05-14T12:35:52;1.57;;;1.47;;
16288;SDS011;26089;43.538;5.250;2023-05-14T12:38:21;1.40;;;1.40;;
16288;SDS011;26089;43.538;5.250;2023-05-14T12:40:48;1.45;;;1.35;;
16288;SDS011;26089;43.538;5.250;2023-05-14T12:43:15;1.10;;;1.10;;
16288;SDS011;26089;43.538;5.250;2023-05-14T12:45:42;1.10;;;1.10;;
16288;SDS011;26089;43.538;5.250;2023-05-14T12:48:09;1.40;;;1.30;;
16288;SDS011;26089;43.538;5.250;2023-05-14T12:50:37;1.17;;;1.17;;
16288;SDS011;26089;43.538;5.250;2023-05-14T12:53:05;1.20;;;1.20;;
16288;SDS011;26089;43.538;5.250;2023-05-14T12:55:33;1.00;;;1.00;;
16288;SDS011;26089;43.538;5.250;2023-05-14T12:58:00;1.67;;;1.57;;
16288;SDS011;26089;43.538;5.250;2023-05-14T13:00:27;1.10;;;1.10;;
16288;SDS011;26089;43.538;5.250;2023-05-14T13:02:54;3.13;;;1.50;;
16288;SDS011;26089;43.538;5.250;2023-05-14T13:05:21;1.50;;;1.50;;
16288;SDS011;26089;43.538;5.250;2023-05-14T13:07:50;1.40;;;1.40;;
16288;SDS011;26089;43.538;5.250;2023-05-14T13:10:19;1.58;;;1.48;;
16288;SDS011;26089;43.538;5.250;2023-05-14T13:12:46;1.77;;;1.67;;
16288;SDS011;26089;43.538;5.250;2023-05-14T13:15:14;1.87;;;1.43;;
16288;SDS011;26089;43.538;5.250;2023-05-14T13:17:41;1.67;;;1.63;;
16288;SDS011;26089;43.538;5.250;2023-05-14T13:20:08;1.48;;;1.45;;
16288;SDS011;26089;43.538;5.250;2023-05-14T13:22:36;1.87;;;1.77;;
16288;SDS011;26089;43.538;5.250;2023-05-14T13:25:03;2.13;;;1.67;;
16288;SDS011;26089;43.538;5.250;2023-05-14T13:27:32;2.43;;;1.60;;
16288;SDS011;26089;43.538;5.250;2023-05-14T13:30:00;1.70;;;1.60;;
16288;SDS011;26089;43.538;5.250;2023-05-14T13:32:28;1.50;;;1.50;;
16288;SDS011;26089;43.538;5.250;2023-05-14T13:34:55;1.67;;;1.57;;
16288;SDS011;26089;43.538;5.250;2023-05-14T13:37:23;1.60;;;1.60;;
16288;SDS011;26089;43.538;5.250;2023-05-14T13:39:50;1.40;;;1.40;;
16288;SDS011;26089;43.538;5.250;2023-05-14T13:42:17;1.30;;;1.30;;
16288;SDS011;26089;43.538;5.250;2023-05-14T13:44:45;1.67;;;1.67;;
16288;SDS011;26089;43.538;5.250;2023-05-14T13:47:12;1.80;;;1.70;;
16288;SDS011;26089;43.538;5.250;2023-05-14T13:49:39;1.43;;;1.43;;
16288;SDS011;26089;43.538;5.250;2023-05-14T13:52:06;1.63;;;1.27;;
16288;SDS011;26089;43.538;5.250;2023-05-14T13:54:33;1.60;;;1.50;;
16288;SDS011;26089;43.538;5.250;2023-05-14T13:57:00;1.20;;;1.20;;
16288;SDS011;26089;43.538;5.250;2023-05-14T13:59:27;1.57;;;1.10;;
16288;SDS011;26089;43.538;5.250;2023-05-14T14:01:55;1.50;;;1.40;;
16288;SDS011;26089;43.538;5.250;2023-05-14T14:04:22;1.30;;;1.20;;
16288;SDS011;26089;43.538;5.250;2023-05-14T14:06:53;1.10;;;1.10;;
16288;SDS011;26089;43.538;5.250;2023-05-14T14:09:20;1.50;;;1.20;;
16288;SDS011;26089;43.538;5.250;2023-05-14T14:11:47;1.20;;;1.20;;
16288;SDS011;26089;43.538;5.250;2023-05-14T14:14:14;1.13;;;1.13;;
16288;SDS011;26089;43.538;5.250;2023-05-14T14:16:41;2.40;;;1.10;;
16288;SDS011;26089;43.538;5.250;2023-05-14T14:19:09;1.10;;;1.10;;
16288;SDS011;26089;43.538;5.250;2023-05-14T14:21:36;1.73;;;1.17;;
16288;SDS011;26089;43.538;5.250;2023-05-14T14:24:06;1.23;;;1.23;;
16288;SDS011;26089;43.538;5.250;2023-05-14T14:26:33;1.00;;;1.00;;
16288;SDS011;26089;43.538;5.250;2023-05-14T14:29:00;1.03;;;1.03;;
16288;SDS011;26089;43.538;5.250;2023-05-14T14:31:27;3.10;;;1.30;;
16288;SDS011;26089;43.538;5.250;2023-05-14T14:33:54;1.13;;;1.13;;
16288;SDS011;26089;43.538;5.250;2023-05-14T14:36:23;1.20;;;1.07;;
16288;SDS011;26089;43.538;5.250;2023-05-14T14:38:49;1.57;;;1.20;;
16288;SDS011;26089;43.538;5.250;2023-05-14T14:41:16;1.30;;;1.30;;
16288;SDS011;26089;43.538;5.250;2023-05-14T14:43:43;1.80;;;1.20;;
16288;SDS011;26089;43.538;5.250;2023-05-14T14:46:10;1.30;;;1.27;;
16288;SDS011;26089;43.538;5.250;2023-05-14T14:48:37;1.20;;;1.10;;
16288;SDS011;26089;43.538;5.250;2023-05-14T14:51:06;1.17;;;1.10;;
16288;SDS011;26089;43.538;5.250;2023-05-14T14:53:35;1.30;;;1.30;;
16288;SDS011;26089;43.538;5.250;2023-05-14T14:56:02;1.40;;;1.40;;
16288;SDS011;26089;43.538;5.250;2023-05-14T14:58:29;1.17;;;1.10;;